createdAt,value
2018-09-19T00:00:43.595Z,44.19
2018-09-19T00:03:11.970Z,43.90
2018-09-19T00:05:40.255Z,43.20
2018-09-19T00:08:09.032Z,43.71
2018-09-19T00:10:37.307Z,43.50
2018-09-19T00:13:05.605Z,43.04
2018-09-19T00:15:34.066Z,43.47
2018-09-19T00:18:02.352Z,43.67
2018-09-19T00:20:30.777Z,43.82
2018-09-19T00:22:59.134Z,44.20
2018-09-19T00:25:27.574Z,44.38
2018-09-19T00:27:56.022Z,44.52
2018-09-19T00:30:24.363Z,44.58
2018-09-19T00:32:52.674Z,44.76
2018-09-19T00:35:21.301Z,44.46
2018-09-19T00:37:49.716Z,44.82
2018-09-19T00:40:18.040Z,44.33
2018-09-19T00:42:46.350Z,44.53
2018-09-19T00:45:14.880Z,43.95
2018-09-19T00:47:43.217Z,45.16
2018-09-19T00:50:11.706Z,44.25
2018-09-19T00:52:40.070Z,44.20
2018-09-19T00:55:09.002Z,44.15
2018-09-19T00:57:37.562Z,43.57
2018-09-19T01:00:05.928Z,44.05
2018-09-19T01:02:34.224Z,43.68
2018-09-19T01:05:02.537Z,44.29
2018-09-19T01:07:30.828Z,44.12
2018-09-19T01:09:59.329Z,43.63
2018-09-19T01:12:27.736Z,43.19
2018-09-19T01:14:56.217Z,43.67
2018-09-19T01:17:24.687Z,43.02
2018-09-19T01:19:53.002Z,42.53
2018-09-19T01:22:21.350Z,42.77
2018-09-19T01:24:49.828Z,42.90
2018-09-19T01:27:18.224Z,42.87
2018-09-19T01:29:46.567Z,42.83
2018-09-19T01:32:15.019Z,42.76
2018-09-19T01:34:43.365Z,43.37
2018-09-19T01:37:11.742Z,43.58
2018-09-19T01:39:40.094Z,44.45
2018-09-19T01:42:08.511Z,44.60
2018-09-19T01:44:36.930Z,44.95
2018-09-19T01:47:05.295Z,46.62
2018-09-19T01:49:33.715Z,45.58
2018-09-19T01:52:02.078Z,44.81
2018-09-19T01:54:30.418Z,44.81
2018-09-19T01:56:58.742Z,45.55
2018-09-19T01:59:27.076Z,45.56
2018-09-19T02:01:55.383Z,45.35
2018-09-19T02:04:23.717Z,44.98
2018-09-19T02:06:52.614Z,44.42
2018-09-19T02:09:21.007Z,44.15
2018-09-19T02:11:49.531Z,44.21
2018-09-19T02:14:18.450Z,44.66
2018-09-19T02:16:46.774Z,45.00
2018-09-19T02:19:15.168Z,44.78
2018-09-19T02:21:43.409Z,45.60
2018-09-19T02:24:11.725Z,45.85
2018-09-19T02:26:40.075Z,45.61
2018-09-19T02:29:08.435Z,45.31
2018-09-19T02:31:36.772Z,46.07
2018-09-19T02:34:05.164Z,45.12
2018-09-19T02:36:33.554Z,45.73
2018-09-19T02:39:01.875Z,46.33
2018-09-19T02:41:30.173Z,46.17
2018-09-19T02:43:58.499Z,46.67
2018-09-19T02:46:26.859Z,46.48
2018-09-19T02:48:55.204Z,46.79
2018-09-19T02:51:23.691Z,46.53
2018-09-19T02:53:51.984Z,47.52
2018-09-19T02:56:20.438Z,46.97
2018-09-19T02:58:48.759Z,47.02
2018-09-19T03:01:17.167Z,47.40
2018-09-19T03:03:45.424Z,47.33
2018-09-19T03:06:13.775Z,47.43
2018-09-19T03:08:42.187Z,47.50
2018-09-19T03:11:10.521Z,48.29
2018-09-19T03:13:38.860Z,48.09
2018-09-19T03:16:07.241Z,47.97
2018-09-19T03:18:35.637Z,48.54
2018-09-19T03:21:03.983Z,48.36
2018-09-19T03:23:32.952Z,49.39
2018-09-19T03:26:01.330Z,48.46
2018-09-19T03:28:29.605Z,48.89
2018-09-19T03:30:57.884Z,48.73
2018-09-19T03:33:26.180Z,49.15
2018-09-19T03:35:54.487Z,49.18
2018-09-19T03:38:22.805Z,48.95
2018-09-19T03:40:51.115Z,48.85
2018-09-19T03:43:19.483Z,48.50
2018-09-19T03:45:47.945Z,49.08
2018-09-19T03:48:16.304Z,48.62
2018-09-19T03:50:44.606Z,48.79
2018-09-19T03:53:13.101Z,48.72
2018-09-19T03:55:41.393Z,49.00
2018-09-19T03:58:09.788Z,48.76
2018-09-19T04:00:39.118Z,48.65
2018-09-19T04:03:07.397Z,48.74
2018-09-19T04:05:35.829Z,48.31
2018-09-19T04:08:04.171Z,48.24
2018-09-19T04:10:32.493Z,48.48
2018-09-19T04:13:00.851Z,48.37
2018-09-19T04:15:29.334Z,47.82
2018-09-19T04:17:57.703Z,48.40
2018-09-19T04:20:26.123Z,48.13
2018-09-19T04:22:54.464Z,48.23
2018-09-19T04:25:22.741Z,48.42
2018-09-19T04:27:51.103Z,48.86
2018-09-19T04:30:19.453Z,48.60
2018-09-19T04:32:47.811Z,48.94
2018-09-19T04:35:16.173Z,48.40
2018-09-19T04:37:44.505Z,48.47
2018-09-19T04:40:12.950Z,48.41
2018-09-19T04:42:41.246Z,48.54
2018-09-19T04:45:09.726Z,48.77
2018-09-19T04:47:37.994Z,47.93
2018-09-19T04:50:06.465Z,47.80
2018-09-19T04:52:35.441Z,49.19
2018-09-19T04:55:04.867Z,49.23
2018-09-19T04:57:33.230Z,48.92
2018-09-19T05:00:02.145Z,49.42
2018-09-19T05:02:30.408Z,50.10
2018-09-19T05:04:58.683Z,50.52
2018-09-19T05:07:27.094Z,50.00
2018-09-19T05:09:55.705Z,49.43
2018-09-19T05:12:24.058Z,51.12
2018-09-19T05:14:52.437Z,50.85
2018-09-19T05:17:20.726Z,50.57
2018-09-19T05:19:49.168Z,52.44
2018-09-19T05:22:18.174Z,50.71
2018-09-19T05:24:46.609Z,50.75
2018-09-19T05:27:16.099Z,54.50
2018-09-19T05:29:44.717Z,47.37
2018-09-19T05:32:13.065Z,47.26
2018-09-19T05:34:41.388Z,47.31
2018-09-19T05:37:09.859Z,49.70
2018-09-19T05:39:38.227Z,49.59
2018-09-19T05:42:06.908Z,48.96
2018-09-19T05:44:35.347Z,50.08
2018-09-19T05:47:03.720Z,50.04
2018-09-19T05:49:32.071Z,50.75
2018-09-19T05:52:00.392Z,50.32
2018-09-19T05:54:28.691Z,50.50
2018-09-19T05:56:57.046Z,50.23
2018-09-19T05:59:25.341Z,50.75
2018-09-19T06:01:53.656Z,49.85
2018-09-19T06:04:21.983Z,49.62
2018-09-19T06:06:50.418Z,49.89
2018-09-19T06:09:18.771Z,48.67
2018-09-19T06:11:47.048Z,48.39
2018-09-19T06:14:15.376Z,47.90
2018-09-19T06:16:43.704Z,48.53
2018-09-19T06:19:11.984Z,47.33
2018-09-19T06:21:40.793Z,47.05
2018-09-19T06:24:09.200Z,46.76
2018-09-19T06:26:37.601Z,45.86
2018-09-19T06:29:06.252Z,45.29
2018-09-19T06:31:34.619Z,44.92
2018-09-19T06:34:02.931Z,44.52
2018-09-19T06:36:31.303Z,44.11
2018-09-19T06:38:59.731Z,44.39
2018-09-19T06:41:28.010Z,44.13
2018-09-19T06:43:56.313Z,44.40
2018-09-19T06:46:24.830Z,43.96
2018-09-19T06:48:53.132Z,44.63
2018-09-19T06:51:22.622Z,43.48
2018-09-19T06:53:50.999Z,43.10
2018-09-19T06:56:19.418Z,42.80
2018-09-19T06:58:47.765Z,42.19
2018-09-19T07:01:16.113Z,41.35
2018-09-19T07:03:44.434Z,42.39
2018-09-19T07:06:12.687Z,42.21
2018-09-19T07:08:40.970Z,40.22
2018-09-19T07:11:09.236Z,40.44
2018-09-19T07:13:37.682Z,40.26
2018-09-19T07:16:06.098Z,39.89
2018-09-19T07:18:34.524Z,39.87
2018-09-19T07:21:02.974Z,39.33
2018-09-19T07:23:31.315Z,39.13
2018-09-19T07:25:59.625Z,38.34
2018-09-19T07:28:27.987Z,39.27
2018-09-19T07:30:56.339Z,36.80
2018-09-19T07:33:24.620Z,37.01
2018-09-19T07:35:52.895Z,37.43
2018-09-19T07:38:21.218Z,36.29
2018-09-19T07:40:49.586Z,35.87
2018-09-19T07:43:18.010Z,35.75
2018-09-19T07:45:46.381Z,35.89
2018-09-19T07:48:14.696Z,36.03
2018-09-19T07:50:42.988Z,35.97
2018-09-19T07:53:11.288Z,35.05
2018-09-19T07:55:39.618Z,34.85
2018-09-19T07:58:07.917Z,34.68
2018-09-19T08:00:36.298Z,33.65
2018-09-19T08:03:04.552Z,35.32
2018-09-19T08:05:32.876Z,35.35
2018-09-19T08:08:01.539Z,33.70
2018-09-19T08:10:29.840Z,34.20
2018-09-19T08:12:58.134Z,33.43
2018-09-19T08:15:26.485Z,33.56
2018-09-19T08:17:54.770Z,33.23
2018-09-19T08:20:23.044Z,32.94
2018-09-19T08:22:51.423Z,32.58
2018-09-19T08:25:19.808Z,33.03
2018-09-19T08:27:48.107Z,32.89
2018-09-19T08:30:16.383Z,32.06
2018-09-19T08:32:44.680Z,31.84
2018-09-19T08:35:13.181Z,31.83
2018-09-19T08:37:41.602Z,32.96
2018-09-19T08:40:13.028Z,32.85
2018-09-19T08:42:41.287Z,32.77
2018-09-19T08:45:09.714Z,31.73
2018-09-19T08:47:37.970Z,30.66
2018-09-19T08:50:06.354Z,30.76
2018-09-19T08:52:34.755Z,30.81
2018-09-19T08:55:03.431Z,31.43
2018-09-19T08:57:31.750Z,31.03
2018-09-19T09:00:00.052Z,30.29
2018-09-19T09:02:28.371Z,29.57
2018-09-19T09:04:56.675Z,30.80
2018-09-19T09:07:24.960Z,30.16
2018-09-19T09:09:56.077Z,30.44
2018-09-19T09:12:24.532Z,29.27
2018-09-19T09:14:52.813Z,29.33
2018-09-19T09:17:21.160Z,29.30
2018-09-19T09:19:49.510Z,30.64
2018-09-19T09:22:17.888Z,29.34
2018-09-19T09:24:46.219Z,28.07
2018-09-19T09:27:14.590Z,27.58
2018-09-19T09:29:43.050Z,28.60
2018-09-19T09:32:11.415Z,26.84
2018-09-19T09:34:39.763Z,26.85
2018-09-19T09:37:08.122Z,25.98
2018-09-19T09:39:36.577Z,25.97
2018-09-19T09:42:04.882Z,25.90
2018-09-19T09:44:33.237Z,25.72
2018-09-19T09:47:01.524Z,26.05
2018-09-19T09:49:29.796Z,25.84
2018-09-19T09:51:58.135Z,25.15
2018-09-19T09:54:26.403Z,25.95
2018-09-19T09:56:54.722Z,25.86
2018-09-19T09:59:23.092Z,25.69
2018-09-19T10:01:51.383Z,25.86
2018-09-19T10:04:19.696Z,25.15
2018-09-19T10:06:48.012Z,25.19
2018-09-19T10:09:16.301Z,25.47
2018-09-19T10:11:44.590Z,24.94
2018-09-19T10:14:12.893Z,25.21
2018-09-19T10:16:41.363Z,25.59
2018-09-19T10:19:09.672Z,25.48
2018-09-19T10:21:37.997Z,25.88
2018-09-19T10:24:06.202Z,25.27
2018-09-19T10:26:34.473Z,25.43
2018-09-19T10:29:02.806Z,24.02
2018-09-19T10:31:31.119Z,23.81
2018-09-19T10:33:59.402Z,24.46
2018-09-19T10:36:27.733Z,23.74
2018-09-19T10:38:56.629Z,23.69
2018-09-19T10:41:24.928Z,24.17
2018-09-19T10:43:53.272Z,23.88
2018-09-19T10:46:21.497Z,24.28
2018-09-19T10:48:49.895Z,23.77
2018-09-19T10:51:18.210Z,22.93
2018-09-19T10:53:46.482Z,22.33
2018-09-19T10:56:14.768Z,21.45
2018-09-19T10:58:43.012Z,22.99
2018-09-19T11:01:11.526Z,23.36
2018-09-19T11:03:39.940Z,23.03
2018-09-19T11:06:08.331Z,22.29
2018-09-19T11:08:36.664Z,21.87
2018-09-19T11:11:05.073Z,21.97
2018-09-19T11:13:33.451Z,21.92
2018-09-19T11:16:01.715Z,22.17
2018-09-19T11:18:30.021Z,22.32
2018-09-19T11:20:58.308Z,22.00
2018-09-19T11:23:26.735Z,22.00
2018-09-19T11:25:55.023Z,23.04
2018-09-19T11:28:23.496Z,23.02
2018-09-19T11:30:51.831Z,22.48
2018-09-19T11:33:20.317Z,22.25
2018-09-19T11:35:48.678Z,21.75
2018-09-19T11:38:17.196Z,20.04
2018-09-19T11:40:45.606Z,20.89
2018-09-19T11:43:14.028Z,19.35
2018-09-19T11:45:42.381Z,19.92
2018-09-19T11:48:10.863Z,19.62
2018-09-19T11:50:39.214Z,18.82
2018-09-19T11:53:11.688Z,17.80
2018-09-19T11:55:40.192Z,16.49
2018-09-19T11:58:08.518Z,16.37
2018-09-19T12:00:36.906Z,16.20
2018-09-19T12:03:08.308Z,15.28
2018-09-19T12:05:36.531Z,15.42
2018-09-19T12:08:04.988Z,14.36
2018-09-19T12:10:33.643Z,13.35
2018-09-19T12:13:02.296Z,11.83
2018-09-19T12:15:30.562Z,11.50
2018-09-19T12:17:59.013Z,12.76
2018-09-19T12:20:27.321Z,12.33
2018-09-19T12:22:55.605Z,10.56
2018-09-19T12:25:23.943Z,10.43
2018-09-19T12:27:52.349Z,10.64
2018-09-19T12:30:20.666Z,9.85
2018-09-19T12:32:49.065Z,9.79
2018-09-19T12:35:17.353Z,8.29
2018-09-19T12:37:45.822Z,10.39
2018-09-19T12:40:14.196Z,10.31
2018-09-19T12:42:42.537Z,9.17
2018-09-19T12:45:10.844Z,8.21
2018-09-19T12:47:39.160Z,7.75
2018-09-19T12:50:07.409Z,7.49
2018-09-19T12:52:35.995Z,7.85
2018-09-19T12:55:04.291Z,8.62
2018-09-19T12:57:32.619Z,9.39
2018-09-19T13:00:01.378Z,9.02
2018-09-19T13:02:29.724Z,7.43
2018-09-19T13:04:57.978Z,7.96
2018-09-19T13:07:26.243Z,6.95
2018-09-19T13:09:54.550Z,7.85
2018-09-19T13:12:22.943Z,8.28
2018-09-19T13:14:51.283Z,7.56
2018-09-19T13:17:19.564Z,7.65
2018-09-19T13:19:47.839Z,7.44
2018-09-19T13:22:16.048Z,8.12
2018-09-19T13:24:44.271Z,9.34
2018-09-19T13:27:12.702Z,8.97
2018-09-19T13:29:41.033Z,9.07
2018-09-19T13:32:09.300Z,10.43
2018-09-19T13:34:37.532Z,8.74
2018-09-19T13:37:05.873Z,8.21
2018-09-19T13:39:34.164Z,7.93
2018-09-19T13:42:02.421Z,7.26
2018-09-19T13:44:30.698Z,6.77
2018-09-19T13:46:58.976Z,6.90
2018-09-19T13:49:31.692Z,7.06
2018-09-19T13:52:00.054Z,8.30
2018-09-19T13:54:28.331Z,7.92
2018-09-19T13:56:56.628Z,10.37
2018-09-19T13:59:24.941Z,11.05
2018-09-19T14:01:53.274Z,11.06
2018-09-19T14:04:21.709Z,12.43
2018-09-19T14:06:49.913Z,12.63
2018-09-19T14:09:18.184Z,13.03
2018-09-19T14:11:46.510Z,14.42
2018-09-19T14:14:14.782Z,14.12
2018-09-19T14:16:43.163Z,15.13
2018-09-19T14:19:12.534Z,13.73
2018-09-19T14:21:40.769Z,10.94
2018-09-19T14:24:09.013Z,9.73
2018-09-19T14:26:37.346Z,8.82
2018-09-19T14:29:06.547Z,8.13
2018-09-19T14:31:34.811Z,7.50
2018-09-19T14:34:03.185Z,7.05
2018-09-19T14:36:31.598Z,8.23
2018-09-19T14:38:59.916Z,8.45
2018-09-19T14:41:28.266Z,8.09
2018-09-19T14:43:56.586Z,8.71
2018-09-19T14:46:24.883Z,9.48
2018-09-19T14:48:53.356Z,9.89
2018-09-19T14:51:21.631Z,9.45
2018-09-19T14:53:49.930Z,10.03
2018-09-19T14:56:18.259Z,10.64
2018-09-19T14:58:46.747Z,10.30
2018-09-19T15:01:15.056Z,9.92
2018-09-19T15:03:43.398Z,8.78
2018-09-19T15:06:11.691Z,7.77
2018-09-19T15:08:40.100Z,7.39
2018-09-19T15:11:08.581Z,7.02
2018-09-19T15:13:37.032Z,7.57
2018-09-19T15:16:05.280Z,8.36
2018-09-19T15:18:33.795Z,10.23
2018-09-19T15:21:02.060Z,10.40
2018-09-19T15:23:30.353Z,11.69
2018-09-19T15:25:58.811Z,12.85
2018-09-19T15:28:27.113Z,14.17
2018-09-19T15:30:55.331Z,16.39
2018-09-19T15:33:23.570Z,17.07
2018-09-19T15:35:52.043Z,16.30
2018-09-19T15:38:20.503Z,14.07
2018-09-19T15:40:48.760Z,13.83
2018-09-19T15:43:17.020Z,13.31
2018-09-19T15:45:45.610Z,11.44
2018-09-19T15:48:14.886Z,11.80
2018-09-19T15:50:43.227Z,11.39
2018-09-19T15:53:11.600Z,10.77
2018-09-19T15:55:39.974Z,10.88
2018-09-19T15:58:08.218Z,11.46
2018-09-19T16:00:36.569Z,12.52
2018-09-19T16:03:04.910Z,11.69
2018-09-19T16:05:33.381Z,11.10
2018-09-19T16:08:01.661Z,10.52
2018-09-19T16:10:30.033Z,11.16
2018-09-19T16:12:58.369Z,11.50
2018-09-19T16:15:26.710Z,12.17
2018-09-19T16:17:55.051Z,12.62
2018-09-19T16:20:23.366Z,13.42
2018-09-19T16:22:51.707Z,14.02
2018-09-19T16:25:20.116Z,13.51
2018-09-19T16:27:48.428Z,13.92
2018-09-19T16:30:16.835Z,14.80
2018-09-19T16:32:45.157Z,15.63
2018-09-19T16:35:13.636Z,16.58
2018-09-19T16:37:41.881Z,16.13
2018-09-19T16:40:10.145Z,17.09
2018-09-19T16:42:38.484Z,17.51
2018-09-19T16:45:06.908Z,18.14
2018-09-19T16:47:35.379Z,18.46
2018-09-19T16:50:03.732Z,19.14
2018-09-19T16:52:32.228Z,19.58
2018-09-19T16:55:00.604Z,19.69
2018-09-19T16:57:29.970Z,19.74
2018-09-19T16:59:58.570Z,20.96
2018-09-19T17:02:26.903Z,20.90
2018-09-19T17:04:55.198Z,20.66
2018-09-19T17:07:23.572Z,21.84
2018-09-19T17:09:52.570Z,21.58
2018-09-19T17:12:21.083Z,22.29
2018-09-19T17:14:49.400Z,22.37
2018-09-19T17:17:17.847Z,22.26
2018-09-19T17:19:46.430Z,23.67
2018-09-19T17:22:14.751Z,22.95
2018-09-19T17:24:43.012Z,23.36
2018-09-19T17:27:11.726Z,24.68
2018-09-19T17:29:40.050Z,24.70
2018-09-19T17:32:08.679Z,25.00
2018-09-19T17:34:37.216Z,24.63
2018-09-19T17:37:06.591Z,24.52
2018-09-19T17:39:34.910Z,25.47
2018-09-19T17:42:03.264Z,25.62
2018-09-19T17:44:31.625Z,25.92
2018-09-19T17:46:59.945Z,26.27
2018-09-19T17:49:28.266Z,26.29
2018-09-19T17:51:56.751Z,28.18
2018-09-19T17:54:25.233Z,26.95
2018-09-19T17:56:53.531Z,27.12
2018-09-19T17:59:21.921Z,26.98
2018-09-19T18:01:51.364Z,27.25
2018-09-19T18:04:19.891Z,27.08
2018-09-19T18:06:48.376Z,27.96
2018-09-19T18:09:16.915Z,27.59
2018-09-19T18:11:45.217Z,28.04
2018-09-19T18:14:13.632Z,28.48
2018-09-19T18:16:41.965Z,29.99
2018-09-19T18:19:10.256Z,29.33
2018-09-19T18:21:38.623Z,29.19
2018-09-19T18:24:06.927Z,29.73
2018-09-19T18:26:36.204Z,29.75
2018-09-19T18:29:04.636Z,30.21
2018-09-19T18:31:33.028Z,30.58
2018-09-19T18:34:01.409Z,29.95
2018-09-19T18:36:29.844Z,30.89
2018-09-19T18:38:58.223Z,31.01
2018-09-19T18:41:26.577Z,31.05
2018-09-19T18:43:54.805Z,31.15
2018-09-19T18:46:23.100Z,31.49
2018-09-19T18:48:51.568Z,31.30
2018-09-19T18:51:19.860Z,31.33
2018-09-19T18:53:48.212Z,32.48
2018-09-19T18:56:16.536Z,31.76
2018-09-19T18:58:44.912Z,31.93
2018-09-19T19:01:13.311Z,32.36
2018-09-19T19:03:41.598Z,32.34
2018-09-19T19:06:10.081Z,33.93
2018-09-19T19:08:38.399Z,34.26
2018-09-19T19:11:07.033Z,32.83
2018-09-19T19:13:35.489Z,33.67
2018-09-19T19:16:03.743Z,35.65
2018-09-19T19:18:32.089Z,34.16
2018-09-19T19:21:00.478Z,33.05
2018-09-19T19:23:28.929Z,33.83
2018-09-19T19:25:57.746Z,34.71
2018-09-19T19:28:27.046Z,34.00
2018-09-19T19:30:55.733Z,34.06
2018-09-19T19:33:24.159Z,35.51
2018-09-19T19:35:52.586Z,34.45
2018-09-19T19:38:21.036Z,34.56
2018-09-19T19:40:49.887Z,35.24
2018-09-19T19:43:18.953Z,35.49
2018-09-19T19:45:48.092Z,36.15
2018-09-19T19:48:16.531Z,35.78
2018-09-19T19:50:44.959Z,36.10
2018-09-19T19:53:13.542Z,36.28
2018-09-19T19:55:41.919Z,36.83
2018-09-19T19:58:10.522Z,37.16
2018-09-19T20:00:38.910Z,37.49
2018-09-19T20:03:07.237Z,37.46
2018-09-19T20:05:36.127Z,37.44
2018-09-19T20:08:04.468Z,37.44
2018-09-19T20:10:32.962Z,38.04
2018-09-19T20:13:01.358Z,39.80
2018-09-19T20:15:29.665Z,38.64
2018-09-19T20:17:58.085Z,37.59
2018-09-19T20:20:26.578Z,38.17
2018-09-19T20:22:54.969Z,38.67
2018-09-19T20:25:23.300Z,38.12
2018-09-19T20:27:51.715Z,38.29
2018-09-19T20:30:20.130Z,38.43
2018-09-19T20:32:48.527Z,38.63
2018-09-19T20:35:16.830Z,38.63
2018-09-19T20:37:45.118Z,39.16
2018-09-19T20:40:13.495Z,39.16
2018-09-19T20:42:41.899Z,39.84
2018-09-19T20:45:10.140Z,39.50
2018-09-19T20:47:38.577Z,39.50
2018-09-19T20:50:07.204Z,40.11
2018-09-19T20:52:35.609Z,39.67
2018-09-19T20:55:03.900Z,39.76
2018-09-19T20:57:32.221Z,40.01
2018-09-19T21:00:00.645Z,40.94
2018-09-19T21:02:29.153Z,41.06
2018-09-19T21:04:57.544Z,42.70
2018-09-19T21:07:27.025Z,39.65
2018-09-19T21:09:55.364Z,39.03
2018-09-19T21:12:23.956Z,39.29
2018-09-19T21:14:52.267Z,39.67
2018-09-19T21:17:20.548Z,39.75
2018-09-19T21:19:48.820Z,39.84
2018-09-19T21:22:17.378Z,40.45
2018-09-19T21:24:45.607Z,42.50
2018-09-19T21:27:14.038Z,40.29
2018-09-19T21:29:42.299Z,40.47
2018-09-19T21:32:11.136Z,40.89
2018-09-19T21:34:39.466Z,40.75
2018-09-19T21:37:08.263Z,40.64
2018-09-19T21:39:36.750Z,40.39
2018-09-19T21:42:05.295Z,40.71
2018-09-19T21:44:33.787Z,42.21
2018-09-19T21:47:02.157Z,41.03
2018-09-19T21:49:30.553Z,43.02
2018-09-19T21:51:58.865Z,43.09
2018-09-19T21:54:27.336Z,41.57
2018-09-19T21:56:55.721Z,41.72
2018-09-19T21:59:23.955Z,42.00
2018-09-19T22:01:59.478Z,42.60
2018-09-19T22:04:27.934Z,42.95
2018-09-19T22:06:56.233Z,42.69
2018-09-19T22:09:24.492Z,42.85
2018-09-19T22:11:53.010Z,42.69
2018-09-19T22:14:21.778Z,42.84
2018-09-19T22:16:51.208Z,42.83
2018-09-19T22:19:19.746Z,42.92
2018-09-19T22:21:48.902Z,43.08
2018-09-19T22:24:17.178Z,43.01
2018-09-19T22:26:45.414Z,43.68
2018-09-19T22:29:13.764Z,44.07
2018-09-19T22:31:42.065Z,43.66
2018-09-19T22:34:10.633Z,43.71
2018-09-19T22:36:45.837Z,43.35
2018-09-19T22:39:16.547Z,43.29
2018-09-19T22:41:45.305Z,43.48
2018-09-19T22:44:13.892Z,44.05
2018-09-19T22:46:42.204Z,43.69
2018-09-19T22:49:10.492Z,44.25
2018-09-19T22:51:38.805Z,45.21
2018-09-19T22:54:07.192Z,43.58
2018-09-19T22:56:35.480Z,44.30
2018-09-19T22:59:03.827Z,45.69
2018-09-19T23:01:32.250Z,44.08
2018-09-19T23:04:00.566Z,45.26
2018-09-19T23:06:28.916Z,43.49
2018-09-19T23:08:57.259Z,44.39
2018-09-19T23:11:26.559Z,46.22
2018-09-19T23:13:54.867Z,44.85
2018-09-19T23:16:23.123Z,45.67
2018-09-19T23:18:51.433Z,45.47
2018-09-19T23:21:19.903Z,46.00
2018-09-19T23:23:48.178Z,46.05
2018-09-19T23:26:16.467Z,46.08
2018-09-19T23:28:44.804Z,46.45
2018-09-19T23:31:13.139Z,46.73
2018-09-19T23:33:41.471Z,46.91
2018-09-19T23:36:09.751Z,45.68
2018-09-19T23:38:38.141Z,46.09
2018-09-19T23:41:06.583Z,46.00
2018-09-19T23:43:35.016Z,46.12
2018-09-19T23:46:03.297Z,45.96
2018-09-19T23:48:31.789Z,45.84
2018-09-19T23:51:00.193Z,46.41
2018-09-19T23:53:28.620Z,46.06
2018-09-19T23:55:57.039Z,46.56
2018-09-19T23:58:25.542Z,46.22
